sensor_id;sensor_type;location;lat;lon;timestamp;temperature;humidity
58096;DHT22;43908;53.038;6.666;2022-08-01T00:00:41;18.30;99.90
58096;DHT22;43908;53.038;6.666;2022-08-01T00:03:06;18.20;99.90
58096;DHT22;43908;53.038;6.666;2022-08-01T00:05:32;18.20;99.90
58096;DHT22;43908;53.038;6.666;2022-08-01T00:07:58;18.20;99.90
58096;DHT22;43908;53.038;6.666;2022-08-01T00:10:24;18.20;99.90
58096;DHT22;43908;53.038;6.666;2022-08-01T00:12:50;18.20;99.90
58096;DHT22;43908;53.038;6.666;2022-08-01T00:15:16;18.20;99.90
58096;DHT22;43908;53.038;6.666;2022-08-01T00:17:43;18.10;99.90
58096;DHT22;43908;53.038;6.666;2022-08-01T00:20:11;18.10;99.90
58096;DHT22;43908;53.038;6.666;2022-08-01T00:22:37;18.20;99.90
58096;DHT22;43908;53.038;6.666;2022-08-01T00:25:04;18.10;99.90
58096;DHT22;43908;53.038;6.666;2022-08-01T00:27:30;18.10;99.90
58096;DHT22;43908;53.038;6.666;2022-08-01T00:29:57;18.10;99.90
58096;DHT22;43908;53.038;6.666;2022-08-01T00:32:23;18.10;99.90
58096;DHT22;43908;53.038;6.666;2022-08-01T00:34:48;18.10;99.90
58096;DHT22;43908;53.038;6.666;2022-08-01T00:37:14;18.20;99.90
58096;DHT22;43908;53.038;6.666;2022-08-01T00:39:40;18.20;99.90
58096;DHT22;43908;53.038;6.666;2022-08-01T00:42:07;18.10;99.90
58096;DHT22;43908;53.038;6.666;2022-08-01T00:44:33;18.10;99.90
58096;DHT22;43908;53.038;6.666;2022-08-01T00:46:59;18.10;99.90
58096;DHT22;43908;53.038;6.666;2022-08-01T00:49:24;18.10;99.90
58096;DHT22;43908;53.038;6.666;2022-08-01T00:51:50;18.10;99.90
58096;DHT22;43908;53.038;6.666;2022-08-01T00:54:16;18.10;99.90
58096;DHT22;43908;53.038;6.666;2022-08-01T00:56:41;18.10;99.90
58096;DHT22;43908;53.038;6.666;2022-08-01T00:59:07;18.10;99.90
58096;DHT22;43908;53.038;6.666;2022-08-01T01:01:34;18.10;99.90
58096;DHT22;43908;53.038;6.666;2022-08-01T01:04:00;18.10;99.90
58096;DHT22;43908;53.038;6.666;2022-08-01T01:06:35;18.10;99.90
58096;DHT22;43908;53.038;6.666;2022-08-01T01:12:04;18.10;99.90
58096;DHT22;43908;53.038;6.666;2022-08-01T01:14:33;18.10;99.90
58096;DHT22;43908;53.038;6.666;2022-08-01T01:17:02;18.10;99.90
58096;DHT22;43908;53.038;6.666;2022-08-01T01:19:30;18.10;99.90
58096;DHT22;43908;53.038;6.666;2022-08-01T01:22:43;18.10;99.90
58096;DHT22;43908;53.038;6.666;2022-08-01T01:30:40;18.10;99.90
58096;DHT22;43908;53.038;6.666;2022-08-01T01:33:08;18.10;99.90
58096;DHT22;43908;53.038;6.666;2022-08-01T01:35:37;18.00;99.90
58096;DHT22;43908;53.038;6.666;2022-08-01T01:38:22;18.00;99.90
58096;DHT22;43908;53.038;6.666;2022-08-01T01:40:50;18.10;99.90
58096;DHT22;43908;53.038;6.666;2022-08-01T01:43:18;18.00;99.90
58096;DHT22;43908;53.038;6.666;2022-08-01T01:45:45;18.10;99.90
58096;DHT22;43908;53.038;6.666;2022-08-01T01:48:19;18.10;99.90
58096;DHT22;43908;53.038;6.666;2022-08-01T01:50:46;18.00;99.90
58096;DHT22;43908;53.038;6.666;2022-08-01T01:53:15;18.00;99.90
58096;DHT22;43908;53.038;6.666;2022-08-01T01:55:45;18.00;99.90
58096;DHT22;43908;53.038;6.666;2022-08-01T01:58:13;18.00;99.90
58096;DHT22;43908;53.038;6.666;2022-08-01T02:00:40;18.10;99.90
58096;DHT22;43908;53.038;6.666;2022-08-01T02:03:09;18.10;99.90
58096;DHT22;43908;53.038;6.666;2022-08-01T02:05:36;18.10;99.90
58096;DHT22;43908;53.038;6.666;2022-08-01T02:08:04;18.10;99.90
58096;DHT22;43908;53.038;6.666;2022-08-01T02:10:31;18.10;99.90
58096;DHT22;43908;53.038;6.666;2022-08-01T02:13:02;18.10;99.90
58096;DHT22;43908;53.038;6.666;2022-08-01T02:15:29;18.10;99.90
58096;DHT22;43908;53.038;6.666;2022-08-01T02:17:56;18.10;99.90
58096;DHT22;43908;53.038;6.666;2022-08-01T02:20:22;17.90;99.90
58096;DHT22;43908;53.038;6.666;2022-08-01T02:22:55;17.90;99.90
58096;DHT22;43908;53.038;6.666;2022-08-01T02:27:58;17.90;99.90
58096;DHT22;43908;53.038;6.666;2022-08-01T02:30:29;17.90;99.90
58096;DHT22;43908;53.038;6.666;2022-08-01T02:33:05;17.80;99.90
58096;DHT22;43908;53.038;6.666;2022-08-01T02:35:35;17.80;99.90
58096;DHT22;43908;53.038;6.666;2022-08-01T02:38:04;17.80;99.90
58096;DHT22;43908;53.038;6.666;2022-08-01T02:40:33;17.80;99.90
58096;DHT22;43908;53.038;6.666;2022-08-01T02:43:01;17.80;99.90
58096;DHT22;43908;53.038;6.666;2022-08-01T02:45:28;17.80;99.90
58096;DHT22;43908;53.038;6.666;2022-08-01T02:47:59;17.80;99.90
58096;DHT22;43908;53.038;6.666;2022-08-01T02:50:26;17.80;99.90
58096;DHT22;43908;53.038;6.666;2022-08-01T02:52:54;17.80;99.90
58096;DHT22;43908;53.038;6.666;2022-08-01T02:55:20;17.70;99.90
58096;DHT22;43908;53.038;6.666;2022-08-01T02:57:47;17.70;99.90
58096;DHT22;43908;53.038;6.666;2022-08-01T03:00:14;17.70;99.90
58096;DHT22;43908;53.038;6.666;2022-08-01T03:02:42;17.70;99.90
58096;DHT22;43908;53.038;6.666;2022-08-01T03:05:10;17.70;99.90
58096;DHT22;43908;53.038;6.666;2022-08-01T03:07:38;17.70;99.90
58096;DHT22;43908;53.038;6.666;2022-08-01T03:10:04;17.60;99.90
58096;DHT22;43908;53.038;6.666;2022-08-01T03:12:33;17.60;99.90
58096;DHT22;43908;53.038;6.666;2022-08-01T03:15:00;17.60;99.90
58096;DHT22;43908;53.038;6.666;2022-08-01T03:17:28;17.50;99.90
58096;DHT22;43908;53.038;6.666;2022-08-01T03:19:56;17.50;99.90
58096;DHT22;43908;53.038;6.666;2022-08-01T03:22:24;17.50;99.90
58096;DHT22;43908;53.038;6.666;2022-08-01T03:24:52;17.50;99.90
58096;DHT22;43908;53.038;6.666;2022-08-01T03:27:22;17.50;99.90
58096;DHT22;43908;53.038;6.666;2022-08-01T03:29:50;17.50;99.90
58096;DHT22;43908;53.038;6.666;2022-08-01T03:32:18;17.50;99.90
58096;DHT22;43908;53.038;6.666;2022-08-01T03:34:45;17.50;99.90
58096;DHT22;43908;53.038;6.666;2022-08-01T03:37:17;17.50;99.90
58096;DHT22;43908;53.038;6.666;2022-08-01T03:40:02;17.50;99.90
58096;DHT22;43908;53.038;6.666;2022-08-01T03:42:39;17.40;99.90
58096;DHT22;43908;53.038;6.666;2022-08-01T03:45:08;17.40;99.90
58096;DHT22;43908;53.038;6.666;2022-08-01T03:47:36;17.40;99.90
58096;DHT22;43908;53.038;6.666;2022-08-01T03:50:04;17.30;99.90
58096;DHT22;43908;53.038;6.666;2022-08-01T03:52:32;17.30;99.90
58096;DHT22;43908;53.038;6.666;2022-08-01T03:55:03;17.30;99.90
58096;DHT22;43908;53.038;6.666;2022-08-01T03:57:30;17.30;99.90
58096;DHT22;43908;53.038;6.666;2022-08-01T03:59:57;17.20;99.90
58096;DHT22;43908;53.038;6.666;2022-08-01T04:02:26;17.10;99.90
58096;DHT22;43908;53.038;6.666;2022-08-01T04:04:52;17.00;99.90
58096;DHT22;43908;53.038;6.666;2022-08-01T04:07:26;17.00;99.90
58096;DHT22;43908;53.038;6.666;2022-08-01T04:09:51;16.90;99.90
58096;DHT22;43908;53.038;6.666;2022-08-01T04:12:17;16.90;99.90
58096;DHT22;43908;53.038;6.666;2022-08-01T04:14:43;16.90;99.90
58096;DHT22;43908;53.038;6.666;2022-08-01T04:17:09;16.90;99.90
58096;DHT22;43908;53.038;6.666;2022-08-01T04:19:35;16.90;99.90
58096;DHT22;43908;53.038;6.666;2022-08-01T04:22:00;17.00;99.90
58096;DHT22;43908;53.038;6.666;2022-08-01T04:24:28;17.10;99.90
58096;DHT22;43908;53.038;6.666;2022-08-01T04:26:57;17.10;99.90
58096;DHT22;43908;53.038;6.666;2022-08-01T04:29:23;17.20;99.90
58096;DHT22;43908;53.038;6.666;2022-08-01T04:31:53;17.30;99.90
58096;DHT22;43908;53.038;6.666;2022-08-01T04:34:21;17.30;99.90
58096;DHT22;43908;53.038;6.666;2022-08-01T04:36:48;17.20;99.90
58096;DHT22;43908;53.038;6.666;2022-08-01T04:39:16;17.20;99.90
58096;DHT22;43908;53.038;6.666;2022-08-01T04:41:44;17.20;99.90
58096;DHT22;43908;53.038;6.666;2022-08-01T04:44:12;17.20;99.90
58096;DHT22;43908;53.038;6.666;2022-08-01T04:46:39;17.20;99.90
58096;DHT22;43908;53.038;6.666;2022-08-01T04:49:08;17.00;99.90
58096;DHT22;43908;53.038;6.666;2022-08-01T04:51:34;16.90;99.90
58096;DHT22;43908;53.038;6.666;2022-08-01T04:54:00;16.90;99.90
58096;DHT22;43908;53.038;6.666;2022-08-01T04:56:26;16.90;99.90
58096;DHT22;43908;53.038;6.666;2022-08-01T04:58:52;16.90;99.90
58096;DHT22;43908;53.038;6.666;2022-08-01T05:01:38;16.90;99.90
58096;DHT22;43908;53.038;6.666;2022-08-01T05:04:03;16.90;99.90
58096;DHT22;43908;53.038;6.666;2022-08-01T05:06:29;16.90;99.90
58096;DHT22;43908;53.038;6.666;2022-08-01T05:08:54;16.90;99.90
58096;DHT22;43908;53.038;6.666;2022-08-01T05:11:21;17.00;99.90
58096;DHT22;43908;53.038;6.666;2022-08-01T05:13:47;17.00;99.90
58096;DHT22;43908;53.038;6.666;2022-08-01T05:16:13;17.00;99.90
58096;DHT22;43908;53.038;6.666;2022-08-01T05:18:38;17.00;99.90
58096;DHT22;43908;53.038;6.666;2022-08-01T05:21:04;17.00;99.90
58096;DHT22;43908;53.038;6.666;2022-08-01T05:23:29;17.00;99.90
58096;DHT22;43908;53.038;6.666;2022-08-01T05:25:55;17.10;99.90
58096;DHT22;43908;53.038;6.666;2022-08-01T05:28:21;17.10;99.90
58096;DHT22;43908;53.038;6.666;2022-08-01T05:30:46;17.20;99.90
58096;DHT22;43908;53.038;6.666;2022-08-01T05:33:12;17.20;99.90
58096;DHT22;43908;53.038;6.666;2022-08-01T05:35:37;17.20;99.90
58096;DHT22;43908;53.038;6.666;2022-08-01T05:38:03;17.20;99.90
58096;DHT22;43908;53.038;6.666;2022-08-01T05:40:28;17.10;99.90
58096;DHT22;43908;53.038;6.666;2022-08-01T05:42:54;17.20;99.90
58096;DHT22;43908;53.038;6.666;2022-08-01T05:45:20;17.20;99.90
58096;DHT22;43908;53.038;6.666;2022-08-01T05:47:45;17.20;99.90
58096;DHT22;43908;53.038;6.666;2022-08-01T05:50:11;17.20;99.90
58096;DHT22;43908;53.038;6.666;2022-08-01T05:52:36;17.30;99.90
58096;DHT22;43908;53.038;6.666;2022-08-01T05:55:03;17.30;99.90
58096;DHT22;43908;53.038;6.666;2022-08-01T05:57:28;17.30;99.90
58096;DHT22;43908;53.038;6.666;2022-08-01T05:59:54;17.30;99.90
58096;DHT22;43908;53.038;6.666;2022-08-01T06:02:20;17.30;99.90
58096;DHT22;43908;53.038;6.666;2022-08-01T06:04:45;17.30;99.90
58096;DHT22;43908;53.038;6.666;2022-08-01T06:07:11;17.40;99.90
58096;DHT22;43908;53.038;6.666;2022-08-01T06:09:36;17.40;99.90
58096;DHT22;43908;53.038;6.666;2022-08-01T06:12:02;17.40;99.90
58096;DHT22;43908;53.038;6.666;2022-08-01T06:14:28;17.50;99.90
58096;DHT22;43908;53.038;6.666;2022-08-01T06:16:54;17.40;99.90
58096;DHT22;43908;53.038;6.666;2022-08-01T06:19:19;17.40;99.90
58096;DHT22;43908;53.038;6.666;2022-08-01T06:21:45;17.40;99.90
58096;DHT22;43908;53.038;6.666;2022-08-01T06:24:11;17.50;99.90
58096;DHT22;43908;53.038;6.666;2022-08-01T06:26:36;17.50;99.90
58096;DHT22;43908;53.038;6.666;2022-08-01T06:29:02;17.50;99.90
58096;DHT22;43908;53.038;6.666;2022-08-01T06:31:28;17.60;99.90
58096;DHT22;43908;53.038;6.666;2022-08-01T06:33:53;17.60;99.90
58096;DHT22;43908;53.038;6.666;2022-08-01T06:36:19;17.70;99.90
58096;DHT22;43908;53.038;6.666;2022-08-01T06:38:44;17.70;99.90
58096;DHT22;43908;53.038;6.666;2022-08-01T06:41:10;17.70;99.90
58096;DHT22;43908;53.038;6.666;2022-08-01T06:43:35;17.80;99.90
58096;DHT22;43908;53.038;6.666;2022-08-01T06:46:01;17.80;99.90
58096;DHT22;43908;53.038;6.666;2022-08-01T06:48:27;17.80;99.90
58096;DHT22;43908;53.038;6.666;2022-08-01T06:50:52;17.80;99.90
58096;DHT22;43908;53.038;6.666;2022-08-01T06:53:36;17.90;99.90
58096;DHT22;43908;53.038;6.666;2022-08-01T06:56:02;17.90;99.90
58096;DHT22;43908;53.038;6.666;2022-08-01T06:58:28;17.90;99.90
58096;DHT22;43908;53.038;6.666;2022-08-01T07:00:54;18.00;99.90
58096;DHT22;43908;53.038;6.666;2022-08-01T07:03:19;18.00;99.90
58096;DHT22;43908;53.038;6.666;2022-08-01T07:05:45;18.00;99.90
58096;DHT22;43908;53.038;6.666;2022-08-01T07:08:11;18.00;99.90
58096;DHT22;43908;53.038;6.666;2022-08-01T07:10:36;18.10;99.90
58096;DHT22;43908;53.038;6.666;2022-08-01T07:13:02;18.10;99.90
58096;DHT22;43908;53.038;6.666;2022-08-01T07:15:27;18.10;99.90
58096;DHT22;43908;53.038;6.666;2022-08-01T07:17:53;18.00;99.90
58096;DHT22;43908;53.038;6.666;2022-08-01T07:20:19;18.10;99.90
58096;DHT22;43908;53.038;6.666;2022-08-01T07:22:44;18.10;99.90
58096;DHT22;43908;53.038;6.666;2022-08-01T07:25:10;18.10;99.90
58096;DHT22;43908;53.038;6.666;2022-08-01T07:27:36;18.10;99.90
58096;DHT22;43908;53.038;6.666;2022-08-01T07:30:03;18.00;99.90
58096;DHT22;43908;53.038;6.666;2022-08-01T07:32:29;18.10;99.90
58096;DHT22;43908;53.038;6.666;2022-08-01T07:34:55;18.20;99.90
58096;DHT22;43908;53.038;6.666;2022-08-01T07:37:21;18.30;99.90
58096;DHT22;43908;53.038;6.666;2022-08-01T07:39:47;18.50;99.90
58096;DHT22;43908;53.038;6.666;2022-08-01T07:42:13;18.60;99.90
58096;DHT22;43908;53.038;6.666;2022-08-01T07:44:39;18.80;99.90
58096;DHT22;43908;53.038;6.666;2022-08-01T07:47:05;18.90;99.90
58096;DHT22;43908;53.038;6.666;2022-08-01T07:49:31;19.10;99.90
58096;DHT22;43908;53.038;6.666;2022-08-01T07:51:57;19.20;99.90
58096;DHT22;43908;53.038;6.666;2022-08-01T07:54:22;19.30;99.90
58096;DHT22;43908;53.038;6.666;2022-08-01T07:56:50;19.50;99.90
58096;DHT22;43908;53.038;6.666;2022-08-01T07:59:15;19.80;99.90
58096;DHT22;43908;53.038;6.666;2022-08-01T08:01:41;20.00;99.90
58096;DHT22;43908;53.038;6.666;2022-08-01T08:04:07;20.20;99.90
58096;DHT22;43908;53.038;6.666;2022-08-01T08:06:32;20.80;99.90
58096;DHT22;43908;53.038;6.666;2022-08-01T08:08:58;21.40;99.90
58096;DHT22;43908;53.038;6.666;2022-08-01T08:11:23;21.50;99.90
58096;DHT22;43908;53.038;6.666;2022-08-01T08:13:49;21.40;99.90
58096;DHT22;43908;53.038;6.666;2022-08-01T08:16:15;21.60;99.90
58096;DHT22;43908;53.038;6.666;2022-08-01T08:18:40;21.60;99.90
58096;DHT22;43908;53.038;6.666;2022-08-01T08:21:06;21.30;99.90
58096;DHT22;43908;53.038;6.666;2022-08-01T08:23:31;21.30;99.90
58096;DHT22;43908;53.038;6.666;2022-08-01T08:26:15;21.00;99.90
58096;DHT22;43908;53.038;6.666;2022-08-01T08:28:41;20.60;99.90
58096;DHT22;43908;53.038;6.666;2022-08-01T08:31:07;20.40;99.90
58096;DHT22;43908;53.038;6.666;2022-08-01T08:33:33;20.50;99.90
58096;DHT22;43908;53.038;6.666;2022-08-01T08:35:59;20.60;99.90
58096;DHT22;43908;53.038;6.666;2022-08-01T08:38:24;20.50;99.90
58096;DHT22;43908;53.038;6.666;2022-08-01T08:40:52;20.50;99.90
58096;DHT22;43908;53.038;6.666;2022-08-01T08:43:18;20.30;99.90
58096;DHT22;43908;53.038;6.666;2022-08-01T08:45:45;20.30;99.90
58096;DHT22;43908;53.038;6.666;2022-08-01T08:48:12;20.10;99.90
58096;DHT22;43908;53.038;6.666;2022-08-01T08:50:38;19.90;99.90
58096;DHT22;43908;53.038;6.666;2022-08-01T08:53:04;20.50;99.90
58096;DHT22;43908;53.038;6.666;2022-08-01T08:55:30;20.50;99.90
58096;DHT22;43908;53.038;6.666;2022-08-01T08:57:56;20.20;99.90
58096;DHT22;43908;53.038;6.666;2022-08-01T09:00:23;20.40;99.90
58096;DHT22;43908;53.038;6.666;2022-08-01T09:02:48;20.70;99.90
58096;DHT22;43908;53.038;6.666;2022-08-01T09:05:14;20.60;99.90
58096;DHT22;43908;53.038;6.666;2022-08-01T09:07:40;20.90;99.90
58096;DHT22;43908;53.038;6.666;2022-08-01T09:10:07;20.90;99.90
58096;DHT22;43908;53.038;6.666;2022-08-01T09:12:32;20.90;99.90
58096;DHT22;43908;53.038;6.666;2022-08-01T09:14:58;21.30;99.90
58096;DHT22;43908;53.038;6.666;2022-08-01T09:17:24;21.30;99.90
58096;DHT22;43908;53.038;6.666;2022-08-01T09:19:54;21.00;99.70
58096;DHT22;43908;53.038;6.666;2022-08-01T09:22:23;21.00;99.90
58096;DHT22;43908;53.038;6.666;2022-08-01T09:25:06;21.30;99.90
58096;DHT22;43908;53.038;6.666;2022-08-01T09:27:32;21.30;99.90
58096;DHT22;43908;53.038;6.666;2022-08-01T09:30:16;21.30;99.90
58096;DHT22;43908;53.038;6.666;2022-08-01T09:32:55;21.60;99.90
58096;DHT22;43908;53.038;6.666;2022-08-01T09:35:24;21.70;99.90
58096;DHT22;43908;53.038;6.666;2022-08-01T09:37:50;21.70;99.90
58096;DHT22;43908;53.038;6.666;2022-08-01T09:40:16;21.60;99.10
58096;DHT22;43908;53.038;6.666;2022-08-01T09:42:42;21.80;99.70
58096;DHT22;43908;53.038;6.666;2022-08-01T09:45:07;21.70;99.00
58096;DHT22;43908;53.038;6.666;2022-08-01T09:47:38;21.90;99.90
58096;DHT22;43908;53.038;6.666;2022-08-01T09:50:04;21.90;98.60
58096;DHT22;43908;53.038;6.666;2022-08-01T09:52:30;21.80;97.00
58096;DHT22;43908;53.038;6.666;2022-08-01T09:55:04;21.50;98.20
58096;DHT22;43908;53.038;6.666;2022-08-01T09:57:30;21.70;99.30
58096;DHT22;43908;53.038;6.666;2022-08-01T09:59:58;21.60;96.30
58096;DHT22;43908;53.038;6.666;2022-08-01T10:02:33;21.80;98.70
58096;DHT22;43908;53.038;6.666;2022-08-01T10:04:59;22.10;98.60
58096;DHT22;43908;53.038;6.666;2022-08-01T10:07:25;22.30;98.80
58096;DHT22;43908;53.038;6.666;2022-08-01T10:09:51;22.50;96.40
58096;DHT22;43908;53.038;6.666;2022-08-01T10:12:19;22.40;96.90
58096;DHT22;43908;53.038;6.666;2022-08-01T10:14:47;22.60;98.10
58096;DHT22;43908;53.038;6.666;2022-08-01T10:17:16;22.30;95.50
58096;DHT22;43908;53.038;6.666;2022-08-01T10:19:42;22.30;94.50
58096;DHT22;43908;53.038;6.666;2022-08-01T10:22:10;22.40;95.20
58096;DHT22;43908;53.038;6.666;2022-08-01T10:24:38;22.40;95.20
58096;DHT22;43908;53.038;6.666;2022-08-01T10:27:08;22.60;96.20
58096;DHT22;43908;53.038;6.666;2022-08-01T10:29:55;22.10;95.80
58096;DHT22;43908;53.038;6.666;2022-08-01T10:32:22;21.90;94.60
58096;DHT22;43908;53.038;6.666;2022-08-01T10:34:49;21.90;95.70
58096;DHT22;43908;53.038;6.666;2022-08-01T10:37:15;22.20;97.40
58096;DHT22;43908;53.038;6.666;2022-08-01T10:39:42;22.40;93.80
58096;DHT22;43908;53.038;6.666;2022-08-01T10:42:10;22.60;95.90
58096;DHT22;43908;53.038;6.666;2022-08-01T10:44:37;22.50;94.30
58096;DHT22;43908;53.038;6.666;2022-08-01T10:47:09;22.40;92.30
58096;DHT22;43908;53.038;6.666;2022-08-01T10:52:23;23.00;95.00
58096;DHT22;43908;53.038;6.666;2022-08-01T10:55:09;23.30;95.50
58096;DHT22;43908;53.038;6.666;2022-08-01T10:57:46;23.10;93.90
58096;DHT22;43908;53.038;6.666;2022-08-01T11:00:20;22.90;94.90
58096;DHT22;43908;53.038;6.666;2022-08-01T11:03:03;23.10;94.50
58096;DHT22;43908;53.038;6.666;2022-08-01T11:05:34;23.20;94.10
58096;DHT22;43908;53.038;6.666;2022-08-01T11:08:10;23.30;94.00
58096;DHT22;43908;53.038;6.666;2022-08-01T11:10:40;23.00;93.90
58096;DHT22;43908;53.038;6.666;2022-08-01T11:13:08;22.70;94.20
58096;DHT22;43908;53.038;6.666;2022-08-01T11:15:34;22.90;94.10
58096;DHT22;43908;53.038;6.666;2022-08-01T11:18:02;22.90;94.20
58096;DHT22;43908;53.038;6.666;2022-08-01T11:20:35;22.90;93.30
58096;DHT22;43908;53.038;6.666;2022-08-01T11:30:44;23.10;94.00
58096;DHT22;43908;53.038;6.666;2022-08-01T11:33:12;23.20;94.00
58096;DHT22;43908;53.038;6.666;2022-08-01T11:38:36;22.40;91.30
58096;DHT22;43908;53.038;6.666;2022-08-01T11:44:05;22.40;93.20
58096;DHT22;43908;53.038;6.666;2022-08-01T11:49:25;22.40;91.60
58096;DHT22;43908;53.038;6.666;2022-08-01T11:54:49;22.30;92.20
58096;DHT22;43908;53.038;6.666;2022-08-01T11:57:28;22.40;91.10
58096;DHT22;43908;53.038;6.666;2022-08-01T12:00:00;22.30;92.10
58096;DHT22;43908;53.038;6.666;2022-08-01T12:02:28;22.70;94.10
58096;DHT22;43908;53.038;6.666;2022-08-01T12:05:01;22.70;92.10
58096;DHT22;43908;53.038;6.666;2022-08-01T12:07:29;22.50;92.10
58096;DHT22;43908;53.038;6.666;2022-08-01T12:10:10;22.30;93.30
58096;DHT22;43908;53.038;6.666;2022-08-01T12:12:42;22.20;92.20
58096;DHT22;43908;53.038;6.666;2022-08-01T12:15:09;22.10;92.30
58096;DHT22;43908;53.038;6.666;2022-08-01T12:17:40;22.20;90.80
58096;DHT22;43908;53.038;6.666;2022-08-01T12:20:08;22.40;92.80
58096;DHT22;43908;53.038;6.666;2022-08-01T12:22:34;22.60;93.00
58096;DHT22;43908;53.038;6.666;2022-08-01T12:25:11;22.60;92.70
58096;DHT22;43908;53.038;6.666;2022-08-01T12:27:38;21.90;88.00
58096;DHT22;43908;53.038;6.666;2022-08-01T12:30:07;22.00;91.80
58096;DHT22;43908;53.038;6.666;2022-08-01T12:32:35;22.30;92.80
58096;DHT22;43908;53.038;6.666;2022-08-01T12:35:10;22.60;92.40
58096;DHT22;43908;53.038;6.666;2022-08-01T12:37:37;22.50;91.00
58096;DHT22;43908;53.038;6.666;2022-08-01T12:40:11;22.50;92.50
58096;DHT22;43908;53.038;6.666;2022-08-01T12:42:40;22.60;92.70
58096;DHT22;43908;53.038;6.666;2022-08-01T12:45:11;22.80;92.80
58096;DHT22;43908;53.038;6.666;2022-08-01T12:47:38;22.80;91.50
58096;DHT22;43908;53.038;6.666;2022-08-01T12:50:11;23.00;91.00
58096;DHT22;43908;53.038;6.666;2022-08-01T12:52:37;23.10;90.30
58096;DHT22;43908;53.038;6.666;2022-08-01T12:57:39;23.00;91.50
58096;DHT22;43908;53.038;6.666;2022-08-01T13:00:10;23.00;92.00
58096;DHT22;43908;53.038;6.666;2022-08-01T13:02:37;23.10;91.40
58096;DHT22;43908;53.038;6.666;2022-08-01T13:05:04;23.20;90.50
58096;DHT22;43908;53.038;6.666;2022-08-01T13:07:45;23.30;90.70
58096;DHT22;43908;53.038;6.666;2022-08-01T13:10:12;23.30;91.00
58096;DHT22;43908;53.038;6.666;2022-08-01T13:12:40;23.40;92.30
58096;DHT22;43908;53.038;6.666;2022-08-01T13:15:19;23.50;91.00
58096;DHT22;43908;53.038;6.666;2022-08-01T13:17:45;23.20;88.20
58096;DHT22;43908;53.038;6.666;2022-08-01T13:20:32;23.40;91.30
58096;DHT22;43908;53.038;6.666;2022-08-01T13:23:11;23.50;91.60
58096;DHT22;43908;53.038;6.666;2022-08-01T13:25:51;23.70;92.10
58096;DHT22;43908;53.038;6.666;2022-08-01T13:28:19;23.80;90.70
58096;DHT22;43908;53.038;6.666;2022-08-01T13:33:17;24.00;90.50
58096;DHT22;43908;53.038;6.666;2022-08-01T13:35:42;23.50;84.50
58096;DHT22;43908;53.038;6.666;2022-08-01T13:38:08;23.70;90.60
58096;DHT22;43908;53.038;6.666;2022-08-01T13:40:34;23.30;85.50
58096;DHT22;43908;53.038;6.666;2022-08-01T13:42:59;22.70;84.10
58096;DHT22;43908;53.038;6.666;2022-08-01T13:45:25;22.60;84.80
58096;DHT22;43908;53.038;6.666;2022-08-01T13:47:50;22.50;87.10
58096;DHT22;43908;53.038;6.666;2022-08-01T13:50:16;22.80;90.00
58096;DHT22;43908;53.038;6.666;2022-08-01T13:52:41;23.00;90.70
58096;DHT22;43908;53.038;6.666;2022-08-01T13:55:07;23.20;89.90
58096;DHT22;43908;53.038;6.666;2022-08-01T13:57:33;23.20;90.00
58096;DHT22;43908;53.038;6.666;2022-08-01T13:59:58;23.20;90.00
58096;DHT22;43908;53.038;6.666;2022-08-01T14:02:26;23.30;91.30
58096;DHT22;43908;53.038;6.666;2022-08-01T14:04:52;23.30;90.60
58096;DHT22;43908;53.038;6.666;2022-08-01T14:07:19;23.30;88.50
58096;DHT22;43908;53.038;6.666;2022-08-01T14:09:45;23.00;83.90
58096;DHT22;43908;53.038;6.666;2022-08-01T14:12:11;23.00;84.50
58096;DHT22;43908;53.038;6.666;2022-08-01T14:14:36;23.00;87.80
58096;DHT22;43908;53.038;6.666;2022-08-01T14:17:03;22.30;82.70
58096;DHT22;43908;53.038;6.666;2022-08-01T14:19:29;22.20;80.70
58096;DHT22;43908;53.038;6.666;2022-08-01T14:21:56;22.30;84.10
58096;DHT22;43908;53.038;6.666;2022-08-01T14:24:23;22.40;81.20
58096;DHT22;43908;53.038;6.666;2022-08-01T14:26:49;22.40;83.80
58096;DHT22;43908;53.038;6.666;2022-08-01T14:29:15;22.50;85.60
58096;DHT22;43908;53.038;6.666;2022-08-01T14:31:40;22.70;88.10
58096;DHT22;43908;53.038;6.666;2022-08-01T14:34:06;23.00;91.20
58096;DHT22;43908;53.038;6.666;2022-08-01T14:36:32;22.90;83.60
58096;DHT22;43908;53.038;6.666;2022-08-01T14:38:58;23.10;86.20
58096;DHT22;43908;53.038;6.666;2022-08-01T14:41:24;23.10;79.30
58096;DHT22;43908;53.038;6.666;2022-08-01T14:43:49;22.60;82.10
58096;DHT22;43908;53.038;6.666;2022-08-01T14:46:15;22.80;86.10
58096;DHT22;43908;53.038;6.666;2022-08-01T14:48:40;23.00;86.60
58096;DHT22;43908;53.038;6.666;2022-08-01T14:51:06;23.00;86.70
58096;DHT22;43908;53.038;6.666;2022-08-01T14:53:32;23.10;84.00
58096;DHT22;43908;53.038;6.666;2022-08-01T14:55:58;22.90;81.30
58096;DHT22;43908;53.038;6.666;2022-08-01T14:58:24;23.10;87.10
58096;DHT22;43908;53.038;6.666;2022-08-01T15:00:49;23.20;88.20
58096;DHT22;43908;53.038;6.666;2022-08-01T15:03:20;23.20;82.40
58096;DHT22;43908;53.038;6.666;2022-08-01T15:05:45;23.30;81.90
58096;DHT22;43908;53.038;6.666;2022-08-01T15:08:11;23.40;84.00
58096;DHT22;43908;53.038;6.666;2022-08-01T15:10:36;23.50;87.00
58096;DHT22;43908;53.038;6.666;2022-08-01T15:13:02;23.60;80.40
58096;DHT22;43908;53.038;6.666;2022-08-01T15:15:28;23.50;83.90
58096;DHT22;43908;53.038;6.666;2022-08-01T15:17:54;23.50;83.90
58096;DHT22;43908;53.038;6.666;2022-08-01T15:20:19;23.50;88.20
58096;DHT22;43908;53.038;6.666;2022-08-01T15:22:45;23.20;88.50
58096;DHT22;43908;53.038;6.666;2022-08-01T15:25:10;23.20;90.20
58096;DHT22;43908;53.038;6.666;2022-08-01T15:27:36;22.50;84.00
58096;DHT22;43908;53.038;6.666;2022-08-01T15:30:03;22.70;88.50
58096;DHT22;43908;53.038;6.666;2022-08-01T15:32:28;22.70;87.30
58096;DHT22;43908;53.038;6.666;2022-08-01T15:34:54;22.40;84.70
58096;DHT22;43908;53.038;6.666;2022-08-01T15:37:20;22.50;87.50
58096;DHT22;43908;53.038;6.666;2022-08-01T15:39:46;22.40;87.50
58096;DHT22;43908;53.038;6.666;2022-08-01T15:42:14;22.60;88.40
58096;DHT22;43908;53.038;6.666;2022-08-01T15:44:40;22.20;86.00
58096;DHT22;43908;53.038;6.666;2022-08-01T15:47:06;21.90;86.50
58096;DHT22;43908;53.038;6.666;2022-08-01T15:49:33;22.40;89.50
58096;DHT22;43908;53.038;6.666;2022-08-01T15:52:01;22.50;88.10
58096;DHT22;43908;53.038;6.666;2022-08-01T15:54:27;22.70;90.50
58096;DHT22;43908;53.038;6.666;2022-08-01T15:56:52;22.70;90.70
58096;DHT22;43908;53.038;6.666;2022-08-01T15:59:18;22.80;90.00
58096;DHT22;43908;53.038;6.666;2022-08-01T16:01:43;22.80;91.40
58096;DHT22;43908;53.038;6.666;2022-08-01T16:04:09;22.80;90.80
58096;DHT22;43908;53.038;6.666;2022-08-01T16:06:35;22.70;90.20
58096;DHT22;43908;53.038;6.666;2022-08-01T16:09:02;22.70;90.80
58096;DHT22;43908;53.038;6.666;2022-08-01T16:11:28;22.40;85.20